KVAD/VAD METAR and TAF weather

Enter ICAO airport designator
Station Type Date Time Source
KVAD METAR 2022/06/26 06:56 UTC NOAA

KVAD 260656Z AUTO 00000KT 10SM CLR 22/20 A3007 RMK AO2 SLP183 T02190200 $


Station Type Date Time Source
KVAD Decoded METAR 2022/06/26 06:56 UTC NOAA

Moody Air Force Base, GA, United States (KVAD) 30-58N 083-12W 71M
Jun 26, 2022 - 02:56 AM EDT / 2022.06.26 0656 UTC
Wind: Calm:0
Visibility: 10 mile(s):0
Sky conditions: clear
Temperature: 71.4 F (21.9 C)
Dew Point: 68.0 F (20.0 C)
Relative Humidity: 88%
Pressure (altimeter): 30.07 in. Hg (1018 hPa)
ob: KVAD 260656Z AUTO 00000KT 10SM CLR 22/20 A3007 RMK AO2 SLP183 T02190200
cycle: 7

Station Type Date Time Source
KVAD TAF 2022/06/24 19:40 UTC NOAA

TAF
AMD KVAD 241930Z 2419/2522 09010G15KT 9999 SCT040 QNH2986INS
TEMPO 2419/2423 VRB15G25KT 4800 -TSRA BKN025CB
BECMG 2507/2508 09006KT 3200 BR BKN005 QNH2997INS
BECMG 2513/2514 09006KT 9999 NSW SCT050 QNH2999INS TX30/2419Z TN23/2510Z LAST NO
AMDS AFT 2420 NEXT 2708

Example: see airport list